Time;durP1;ratioP1;P1;durP2;ratioP2;P2;SDS_P1;SDS_P2;PMS_P1;PMS_P2;Temp;Humidity;BMP_temperature;BMP_pressure;BME280_temperature;BME280_humidity;BME280_pressure;Samples;Min_cycle;Max_cycle;Signal;HPM_P1;HPM_P2
2022/12/20 00:00:57;;;;;;;16.77;10.70;;;;;;;5.29;100.00;153862.09;5003463;28;20037;-74
2022/12/20 00:03:23;;;;;;;17.02;10.20;;;;;;;5.28;100.00;153860.81;5043258;28;20041;-73
2022/12/20 00:05:49;;;;;;;17.25;11.20;;;;;;;5.40;100.00;153891.47;5011117;28;20162;-75
2022/12/20 00:08:15;;;;;;;15.32;10.65;;;;;;;5.49;100.00;153911.97;5011931;28;20045;-76
2022/12/20 00:10:43;;;;;;;15.30;10.25;;;;;;;5.45;100.00;153904.28;5011679;28;20044;-77
2022/12/20 00:13:11;;;;;;;15.70;10.30;;;;;;;5.62;100.00;153946.47;5003771;28;20040;-75
2022/12/20 00:15:37;;;;;;;15.48;10.40;;;;;;;5.65;100.00;153954.16;5011227;28;20394;-74
2022/12/20 00:18:03;;;;;;;14.32;10.13;;;;;;;5.70;100.00;153965.66;5006399;28;20045;-75
2022/12/20 00:20:29;;;;;;;15.18;10.23;;;;;;;5.82;100.00;153995.06;5002021;28;20033;-74
2022/12/20 00:22:55;;;;;;;14.38;10.25;;;;;;;5.75;100.00;153977.19;5003016;28;20470;-75
2022/12/20 00:25:21;;;;;;;15.55;10.77;;;;;;;5.71;100.00;153968.25;5012750;28;20641;-74
2022/12/20 00:27:48;;;;;;;14.35;10.15;;;;;;;5.78;100.00;153984.84;4985945;28;20064;-74
2022/12/20 00:30:16;;;;;;;15.95;10.60;;;;;;;5.72;100.00;153969.50;5000158;28;20032;-75
2022/12/20 00:32:44;;;;;;;13.63;9.40;;;;;;;5.64;100.00;153951.59;5009092;28;20029;-74
2022/12/20 00:35:11;;;;;;;15.48;10.25;;;;;;;5.68;100.00;153960.53;4999014;28;20041;-75
2022/12/20 00:37:38;;;;;;;14.40;10.23;;;;;;;5.54;100.00;153924.72;5003805;28;20133;-74
2022/12/20 00:40:05;;;;;;;15.25;10.25;;;;;;;5.65;100.00;153954.16;4995391;28;20044;-74
2022/12/20 00:42:32;;;;;;;16.42;10.45;;;;;;;5.63;100.00;153947.75;5004736;28;20033;-74
2022/12/20 00:44:59;;;;;;;17.08;10.02;;;;;;;5.64;100.00;153950.31;4999516;28;20036;-75
2022/12/20 00:47:26;;;;;;;15.27;10.50;;;;;;;5.62;100.00;153945.22;4994979;28;20815;-75
2022/12/20 00:49:53;;;;;;;16.67;9.98;;;;;;;5.64;100.00;153951.59;5006177;28;20044;-74
2022/12/20 00:52:22;;;;;;;16.00;10.30;;;;;;;5.51;100.00;153918.34;5008054;28;20119;-75
2022/12/20 00:54:49;;;;;;;19.92;10.52;;;;;;;5.52;100.00;153919.63;5000361;28;20040;-75
2022/12/20 00:57:17;;;;;;;15.52;9.93;;;;;;;5.58;100.00;153936.25;5000078;28;20403;-74
2022/12/20 00:59:43;;;;;;;17.33;9.85;;;;;;;5.46;100.00;153906.88;5022319;28;20118;-73
2022/12/20 01:02:12;;;;;;;15.63;10.23;;;;;;;5.37;100.00;153883.84;4988994;28;20033;-74
2022/12/20 01:04:38;;;;;;;15.50;10.55;;;;;;;5.51;100.00;153918.34;5026348;28;20045;-74
2022/12/20 01:07:08;;;;;;;14.68;10.20;;;;;;;5.31;100.00;153867.19;5010893;28;20044;-73
2022/12/20 01:09:35;;;;;;;14.75;10.25;;;;;;;5.22;100.00;153846.75;5013331;28;20487;-74
2022/12/20 01:12:01;;;;;;;13.48;10.35;;;;;;;5.25;100.00;153854.44;4999982;28;20049;-74
2022/12/20 01:14:27;;;;;;;14.95;9.60;;;;;;;5.12;100.00;153821.16;5017017;28;20052;-74
2022/12/20 01:17:00;;;;;;;15.40;10.20;;;;;;;5.21;100.00;153842.91;5000405;28;20094;-75
2022/12/20 01:19:27;;;;;;;15.88;10.50;;;;;;;5.18;100.00;153836.56;5009126;28;20518;-74
2022/12/20 01:21:55;;;;;;;16.67;10.98;;;;;;;5.37;100.00;153883.84;5008557;28;20124;-75
2022/12/20 01:24:21;;;;;;;13.20;10.07;;;;;;;5.43;100.00;153899.16;5005488;28;20179;-74
2022/12/20 01:26:47;;;;;;;19.23;10.30;;;;;;;5.40;100.00;153890.22;5033668;28;20685;-74
2022/12/20 01:29:13;;;;;;;15.35;10.40;;;;;;;5.43;100.00;153899.16;5010441;28;20076;-75
2022/12/20 01:31:42;;;;;;;14.55;10.55;;;;;;;5.49;100.00;153913.25;5007137;28;20123;-75
2022/12/20 01:34:11;;;;;;;15.95;10.43;;;;;;;5.47;100.00;153909.41;5013479;28;20076;-75
2022/12/20 01:36:41;;;;;;;14.93;9.93;;;;;;;5.57;100.00;153933.69;4985266;28;20033;-75
2022/12/20 01:39:12;;;;;;;14.63;9.77;;;;;;;5.65;100.00;153954.16;5004553;28;20041;-74
2022/12/20 01:41:39;;;;;;;13.57;9.20;;;;;;;5.69;100.00;153961.81;5008529;28;20032;-75
2022/12/20 01:44:25;;;;;;;14.20;9.50;;;;;;;5.64;100.00;153950.31;5002016;28;20057;-75
2022/12/20 01:46:53;;;;;;;14.32;9.88;;;;;;;5.66;100.00;153956.69;4977701;28;20134;-75
2022/12/20 01:49:31;;;;;;;13.98;10.32;;;;;;;5.70;100.00;153964.41;4992975;28;20045;-75
2022/12/20 01:52:21;;;;;;;16.33;9.60;;;;;;;5.78;100.00;153986.16;4995713;28;20462;-76
2022/12/20 01:55:04;;;;;;;14.15;8.85;;;;;;;5.88;100.00;154009.13;5017327;28;20044;-76
2022/12/20 01:57:46;;;;;;;15.60;9.70;;;;;;;5.97;100.00;154033.50;5007706;28;20036;-75
2022/12/20 02:00:16;;;;;;;13.60;9.52;;;;;;;5.96;100.00;154030.94;5018476;28;20037;-75
2022/12/20 02:02:46;;;;;;;13.43;9.40;;;;;;;5.98;100.00;154034.78;4992228;28;20081;-75
2022/12/20 02:05:14;;;;;;;14.50;9.25;;;;;;;6.07;100.00;154057.81;4994197;28;20033;-74
2022/12/20 02:07:48;;;;;;;13.90;9.43;;;;;;;6.20;100.00;154091.06;4989756;28;20071;-75
2022/12/20 02:10:23;;;;;;;13.23;8.75;;;;;;;6.11;100.00;154066.75;5002017;28;20037;-75
2022/12/20 02:12:55;;;;;;;13.45;9.48;;;;;;;6.09;100.00;154062.91;5005658;28;20091;-74
2022/12/20 02:15:31;;;;;;;15.68;9.25;;;;;;;6.20;100.00;154089.78;4997492;28;20107;-76
2022/12/20 02:18:21;;;;;;;16.88;9.30;;;;;;;6.31;100.00;154117.94;5004309;28;20133;-75
2022/12/20 02:20:47;;;;;;;12.52;8.48;;;;;;;6.23;100.00;154098.75;5002282;28;20065;-75
2022/12/20 02:23:41;;;;;;;13.13;9.27;;;;;;;6.33;100.00;154121.75;5007186;28;20044;-75
2022/12/20 02:26:56;;;;;;;11.15;7.80;;;;;;;6.39;100.00;154138.41;5012802;28;20161;-74
2022/12/20 02:29:29;;;;;;;12.32;8.63;;;;;;;6.47;100.00;154156.31;4980671;28;20045;-75
2022/12/20 02:32:09;;;;;;;11.02;7.88;;;;;;;6.44;100.00;154149.88;4997854;28;20037;-75
2022/12/20 02:34:37;;;;;;;10.52;7.80;;;;;;;6.60;100.00;154190.84;5025278;28;20036;-75
2022/12/20 02:37:03;;;;;;;11.98;8.18;;;;;;;6.65;100.00;154201.06;5006327;28;20045;-76
2022/12/20 02:39:31;;;;;;;14.30;8.50;;;;;;;6.64;100.00;154199.81;4986139;28;20044;-76
2022/12/20 02:42:03;;;;;;;11.43;7.70;;;;;;;6.71;100.00;154216.47;4999096;28;20041;-75
2022/12/20 02:47:28;;;;;;;11.52;7.57;;;;;;;6.65;100.00;154201.06;5002642;28;20037;-75
2022/12/20 02:49:55;;;;;;;12.32;7.65;;;;;;;6.79;100.00;154236.94;5003593;28;20044;-75
2022/12/20 02:52:25;;;;;;;11.80;8.02;;;;;;;6.86;100.00;154254.84;4994054;28;20594;-75
2022/12/20 02:54:53;;;;;;;11.18;7.57;;;;;;;6.87;100.00;154257.38;4985514;28;20072;-75
2022/12/20 02:57:42;;;;;;;11.00;7.60;;;;;;;6.93;100.00;154272.78;5007506;28;20110;-75
2022/12/20 03:00:22;;;;;;;11.07;7.40;;;;;;;6.99;100.00;154286.84;4989998;28;20037;-75
2022/12/20 03:05:43;;;;;;;9.32;6.68;;;;;;;6.99;100.00;154286.84;5012390;28;20048;-75
2022/12/20 03:08:10;;;;;;;11.00;7.38;;;;;;;7.02;100.00;154294.50;4996500;28;20726;-74
2022/12/20 03:10:36;;;;;;;14.02;6.68;;;;;;;6.96;100.00;154280.44;4984193;28;20785;-75
2022/12/20 03:13:17;;;;;;;9.20;6.75;;;;;;;7.05;100.00;154302.19;5015555;28;20038;-75
2022/12/20 03:16:03;;;;;;;9.88;7.10;;;;;;;7.11;100.00;154316.28;5030859;28;20772;-74
2022/12/20 03:18:28;;;;;;;12.10;7.10;;;;;;;7.09;100.00;154311.16;5004890;28;20045;-76
2022/12/20 03:20:54;;;;;;;9.38;6.95;;;;;;;7.01;100.00;154293.25;4993183;28;20052;-76
2022/12/20 03:23:20;;;;;;;10.35;6.82;;;;;;;7.05;100.00;154300.94;5018624;28;20041;-76
2022/12/20 03:25:47;;;;;;;11.45;7.15;;;;;;;7.11;100.00;154317.56;4996031;28;20041;-75
2022/12/20 03:28:21;;;;;;;12.13;7.10;;;;;;;7.11;100.00;154316.28;4997919;28;20049;-76
2022/12/20 03:30:47;;;;;;;11.55;6.95;;;;;;;7.21;100.00;154341.88;5005095;28;20040;-76
2022/12/20 03:33:12;;;;;;;11.15;6.70;;;;;;;7.12;100.00;154320.13;5002099;28;20044;-76
2022/12/20 03:35:39;;;;;;;13.70;7.55;;;;;;;7.26;100.00;154354.69;5016435;28;20072;-75
2022/12/20 03:38:05;;;;;;;10.48;6.72;;;;;;;7.16;100.00;154330.38;4998887;28;20057;-75
2022/12/20 03:40:31;;;;;;;11.35;7.22;;;;;;;7.16;100.00;154330.38;5018803;28;20672;-74
2022/12/20 03:42:57;;;;;;;11.55;7.00;;;;;;;7.17;100.00;154332.91;5009902;28;20067;-75
2022/12/20 03:45:22;;;;;;;9.00;6.55;;;;;;;7.25;100.00;154352.09;4984298;28;20029;-77
2022/12/20 03:47:48;;;;;;;11.07;6.93;;;;;;;7.36;100.00;154379.00;5037850;28;20045;-75
2022/12/20 03:50:14;;;;;;;10.70;6.65;;;;;;;7.38;100.00;154384.09;4989084;28;20044;-75
2022/12/20 03:52:41;;;;;;;12.52;7.10;;;;;;;7.42;100.00;154394.34;5037491;28;20040;-74
2022/12/20 03:55:08;;;;;;;10.85;7.30;;;;;;;7.36;100.00;154379.00;5008925;28;20040;-75
2022/12/20 03:57:39;;;;;;;13.02;6.82;;;;;;;7.31;100.00;154366.19;5007681;28;20146;-76
2022/12/20 04:00:14;;;;;;;9.02;6.50;;;;;;;7.29;100.00;154362.38;5024244;28;20721;-75
2022/12/20 04:02:45;;;;;;;12.13;7.07;;;;;;;7.29;100.00;154361.06;5001166;28;20039;-77
2022/12/20 04:05:11;;;;;;;10.13;6.68;;;;;;;7.12;100.00;154318.81;5000823;28;20512;-75
2022/12/20 04:07:37;;;;;;;12.85;7.38;;;;;;;7.05;100.00;154302.19;4994868;28;20056;-75
2022/12/20 04:10:03;;;;;;;9.90;6.70;;;;;;;7.00;100.00;154290.66;5019204;28;20502;-75
2022/12/20 04:12:29;;;;;;;12.40;7.45;;;;;;;6.90;100.00;154265.09;5021854;28;20035;-76
2022/12/20 04:14:55;;;;;;;11.15;7.05;;;;;;;6.92;100.00;154270.19;5019823;28;20037;-75
2022/12/20 04:17:21;;;;;;;10.90;7.25;;;;;;;6.82;100.00;154245.88;5016464;28;20510;-76
2022/12/20 04:19:47;;;;;;;10.57;7.35;;;;;;;6.72;100.00;154219.00;5017164;28;20505;-75
2022/12/20 04:22:13;;;;;;;12.65;8.20;;;;;;;6.81;100.00;154242.03;5000200;28;20037;-75
2022/12/20 04:24:48;;;;;;;11.80;7.45;;;;;;;6.73;100.00;154222.84;4989941;28;20045;-76
2022/12/20 04:27:30;;;;;;;12.65;7.75;;;;;;;6.73;100.00;154221.59;5019438;28;20117;-75
2022/12/20 04:29:56;;;;;;;11.43;7.88;;;;;;;6.61;100.00;154193.44;5002536;28;20037;-75
2022/12/20 04:32:22;;;;;;;10.25;7.38;;;;;;;6.62;100.00;154195.97;5009760;28;21098;-73
2022/12/20 04:34:48;;;;;;;12.45;8.00;;;;;;;6.73;100.00;154221.59;5003367;28;20776;-75
2022/12/20 04:37:14;;;;;;;14.32;7.68;;;;;;;6.59;100.00;154187.00;4985361;28;20044;-75
2022/12/20 04:39:50;;;;;;;10.00;7.63;;;;;;;6.51;100.00;154166.53;5008195;28;20202;-75
2022/12/20 04:42:35;;;;;;;12.77;8.65;;;;;;;6.41;100.00;154143.50;5009267;28;20037;-75
2022/12/20 04:45:01;;;;;;;13.60;8.40;;;;;;;6.44;100.00;154149.88;5021324;28;20113;-75
2022/12/20 04:47:29;;;;;;;11.90;8.00;;;;;;;6.43;100.00;154148.63;4990285;28;20820;-74
2022/12/20 04:49:55;;;;;;;11.88;8.30;;;;;;;6.44;100.00;154149.88;5012782;28;20051;-75
2022/12/20 04:55:06;;;;;;;10.88;7.65;;;;;;;6.76;100.00;154229.22;5012377;28;20449;-75
2022/12/20 04:57:33;;;;;;;11.00;7.45;;;;;;;6.78;100.00;154235.66;4996533;28;20036;-76
2022/12/20 04:59:59;;;;;;;13.30;8.13;;;;;;;6.66;100.00;154204.91;5020432;28;20037;-76
2022/12/20 05:02:25;;;;;;;12.00;8.10;;;;;;;6.61;100.00;154193.44;5007612;28;20044;-76
2022/12/20 05:04:59;;;;;;;11.80;8.23;;;;;;;6.49;100.00;154162.69;5032856;28;20110;-76
2022/12/20 05:07:25;;;;;;;13.40;8.70;;;;;;;6.48;100.00;154160.16;5011193;28;20214;-75
2022/12/20 05:09:53;;;;;;;13.60;8.40;;;;;;;6.45;100.00;154151.19;5009757;28;20059;-74
2022/12/20 05:12:19;;;;;;;12.40;8.57;;;;;;;6.47;100.00;154156.31;4984626;28;20494;-76
2022/12/20 05:14:45;;;;;;;14.48;9.00;;;;;;;6.34;100.00;154124.31;5017697;28;20035;-75
2022/12/20 05:17:12;;;;;;;13.40;9.90;;;;;;;6.34;100.00;154124.31;5020463;28;20040;-75
2022/12/20 05:19:38;;;;;;;15.00;9.32;;;;;;;6.24;100.00;154101.28;5003736;28;20051;-75
2022/12/20 05:27:49;;;;;;;15.77;10.05;;;;;;;6.37;100.00;154132.03;5004457;28;20045;-76
2022/12/20 05:30:16;;;;;;;14.48;9.73;;;;;;;6.35;100.00;154126.91;5003767;28;20124;-73
2022/12/20 05:32:42;;;;;;;12.57;9.35;;;;;;;6.35;100.00;154126.91;4994535;28;20442;-75
2022/12/20 05:35:08;;;;;;;15.52;9.85;;;;;;;6.26;100.00;154103.88;5000575;28;20055;-74
2022/12/20 05:37:34;;;;;;;13.45;9.98;;;;;;;6.19;100.00;154088.47;4999087;28;20072;-74
2022/12/20 05:40:08;;;;;;;12.55;9.70;;;;;;;6.10;100.00;154064.19;5024160;28;20041;-75
2022/12/20 05:42:34;;;;;;;18.00;10.45;;;;;;;6.12;100.00;154069.31;5023741;28;20024;-77
2022/12/20 05:45:00;;;;;;;15.45;10.75;;;;;;;6.19;100.00;154088.47;5004120;28;20041;-75
2022/12/20 05:47:27;;;;;;;16.05;10.25;;;;;;;6.18;100.00;154085.94;4991445;28;20025;-75
2022/12/20 05:50:02;;;;;;;14.45;10.10;;;;;;;6.17;100.00;154083.38;4987168;28;20403;-74
2022/12/20 05:52:31;;;;;;;17.00;10.05;;;;;;;6.23;100.00;154097.44;5002230;28;20095;-75
2022/12/20 05:54:56;;;;;;;15.20;10.45;;;;;;;6.28;100.00;154108.97;4995169;28;20044;-75
2022/12/20 05:57:24;;;;;;;15.25;9.98;;;;;;;6.15;100.00;154077.00;5007020;28;20068;-75
2022/12/20 05:59:49;;;;;;;13.65;10.43;;;;;;;6.18;100.00;154085.94;5025639;28;20077;-75
2022/12/20 06:02:17;;;;;;;18.58;10.35;;;;;;;6.08;100.00;154060.34;5006388;28;20071;-74
2022/12/20 06:04:46;;;;;;;16.83;10.60;;;;;;;6.16;100.00;154079.53;4996366;28;20046;-75
2022/12/20 06:07:18;;;;;;;16.98;10.15;;;;;;;6.25;100.00;154102.56;5002946;28;20506;-75
2022/12/20 06:09:46;;;;;;;18.27;10.73;;;;;;;6.29;100.00;154111.50;5024586;28;20045;-75
2022/12/20 06:12:15;;;;;;;15.15;10.77;;;;;;;6.39;100.00;154137.13;5003930;28;20945;-75
2022/12/20 06:14:41;;;;;;;17.00;10.80;;;;;;;6.57;100.00;154181.88;5007177;28;20153;-75
2022/12/20 06:17:07;;;;;;;15.82;10.50;;;;;;;6.58;100.00;154184.47;5007120;28;20037;-75
2022/12/20 06:19:33;;;;;;;19.08;11.20;;;;;;;6.54;100.00;154175.50;5011975;28;20051;-75
2022/12/20 06:21:59;;;;;;;16.13;11.48;;;;;;;6.67;100.00;154207.50;5009451;28;20056;-75
2022/12/20 06:24:34;;;;;;;16.60;11.27;;;;;;;6.70;100.00;154215.16;5014754;28;20440;-75
2022/12/20 06:27:01;;;;;;;17.20;11.02;;;;;;;6.71;100.00;154217.72;4997765;28;20032;-74
2022/12/20 06:29:29;;;;;;;20.90;11.77;;;;;;;6.73;100.00;154221.59;5003290;28;20641;-75
2022/12/20 06:32:04;;;;;;;19.25;11.73;;;;;;;6.82;100.00;154244.63;5019739;28;20764;-74
2022/12/20 06:34:31;;;;;;;17.27;12.00;;;;;;;6.88;100.00;154258.69;5003738;28;20036;-75
2022/12/20 06:36:56;;;;;;;17.38;11.85;;;;;;;6.87;100.00;154257.38;5001011;28;20041;-74
2022/12/20 06:39:25;;;;;;;17.75;11.02;;;;;;;6.83;100.00;154248.41;5002476;28;20041;-74
2022/12/20 06:42:11;;;;;;;19.77;11.57;;;;;;;6.83;100.00;154248.41;5028751;28;20480;-75
2022/12/20 06:44:39;;;;;;;17.73;11.55;;;;;;;6.87;100.00;154257.38;5012875;28;20040;-75
2022/12/20 06:47:04;;;;;;;20.92;12.00;;;;;;;6.83;100.00;154247.16;5000312;28;20413;-76
2022/12/20 06:49:30;;;;;;;20.60;12.05;;;;;;;6.78;100.00;154234.34;4996441;28;20044;-75
2022/12/20 06:51:56;;;;;;;17.98;11.55;;;;;;;6.86;100.00;154253.59;5032260;28;20044;-74
2022/12/20 06:54:31;;;;;;;17.70;11.77;;;;;;;6.84;100.00;154249.72;4992779;28;20079;-75
2022/12/20 06:56:56;;;;;;;20.33;12.80;;;;;;;6.73;100.00;154221.59;5009432;28;20080;-74
2022/12/20 06:59:22;;;;;;;16.77;12.05;;;;;;;6.83;100.00;154247.16;5017271;28;20072;-74
2022/12/20 07:01:48;;;;;;;18.63;12.00;;;;;;;6.84;100.00;154249.72;5009429;28;20122;-75
2022/12/20 07:04:14;;;;;;;19.08;11.85;;;;;;;6.88;100.00;154258.69;5021008;28;20044;-75
2022/12/20 07:06:40;;;;;;;18.58;12.15;;;;;;;6.81;100.00;154243.31;5018958;28;20036;-76
2022/12/20 07:09:06;;;;;;;20.50;11.57;;;;;;;6.83;100.00;154247.16;5039695;28;20041;-77
2022/12/20 07:11:31;;;;;;;20.00;11.95;;;;;;;6.91;100.00;154266.34;5026468;28;20045;-74
2022/12/20 07:13:57;;;;;;;19.88;12.23;;;;;;;6.86;100.00;154254.84;4984673;28;20171;-74
2022/12/20 07:16:23;;;;;;;18.95;13.15;;;;;;;6.88;100.00;154258.69;5011311;28;20040;-74
2022/12/20 07:18:51;;;;;;;18.50;12.85;;;;;;;6.88;100.00;154259.97;5011525;28;20094;-76
2022/12/20 07:21:18;;;;;;;24.40;13.90;;;;;;;6.84;100.00;154249.72;5006283;28;20669;-75
2022/12/20 07:23:45;;;;;;;22.10;13.75;;;;;;;6.83;100.00;154247.16;5039315;28;20037;-75
2022/12/20 07:26:11;;;;;;;22.73;14.25;;;;;;;6.80;100.00;154239.50;5015815;28;20033;-75
2022/12/20 07:28:37;;;;;;;23.25;15.13;;;;;;;6.73;100.00;154222.84;5052910;28;20063;-74
2022/12/20 07:31:04;;;;;;;27.60;16.05;;;;;;;6.80;100.00;154240.78;5003364;28;20073;-75
2022/12/20 07:33:30;;;;;;;23.65;15.20;;;;;;;6.74;100.00;154225.44;4994884;28;20397;-75
2022/12/20 07:36:09;;;;;;;23.63;15.05;;;;;;;6.77;100.00;154231.81;5005510;28;20036;-75
2022/12/20 07:38:36;;;;;;;24.20;15.10;;;;;;;6.67;100.00;154207.50;5020478;28;20032;-75
2022/12/20 07:41:09;;;;;;;25.83;14.75;;;;;;;6.74;100.00;154225.44;5020065;28;20033;-74
2022/12/20 07:43:36;;;;;;;22.17;15.50;;;;;;;6.68;100.00;154210.03;5003428;28;20033;-75
2022/12/20 07:46:04;;;;;;;25.00;15.55;;;;;;;6.73;100.00;154222.84;5005541;28;20563;-75
2022/12/20 07:48:29;;;;;;;21.48;15.30;;;;;;;6.75;100.00;154226.69;5025546;28;20029;-75
2022/12/20 07:51:00;;;;;;;24.15;15.05;;;;;;;6.62;100.00;154195.97;5024242;28;20033;-76
2022/12/20 07:53:27;;;;;;;23.30;14.73;;;;;;;6.67;100.00;154206.19;5037990;28;20041;-75
2022/12/20 07:55:54;;;;;;;26.00;16.15;;;;;;;6.69;100.00;154212.63;5003240;28;20045;-75
2022/12/20 07:58:21;;;;;;;24.13;14.52;;;;;;;6.69;100.00;154212.63;5009951;28;20079;-75
2022/12/20 08:00:47;;;;;;;23.40;15.02;;;;;;;6.70;100.00;154215.16;5033402;28;20050;-75
2022/12/20 08:03:18;;;;;;;21.90;15.10;;;;;;;6.71;100.00;154217.72;5019251;28;20037;-75
2022/12/20 08:05:50;;;;;;;25.20;15.20;;;;;;;6.61;100.00;154193.44;5011336;28;20036;-75
2022/12/20 08:08:16;;;;;;;27.80;15.40;;;;;;;6.65;100.00;154201.06;4992754;28;20037;-76
2022/12/20 08:10:42;;;;;;;25.40;14.90;;;;;;;6.62;100.00;154194.69;5017683;28;20063;-75
2022/12/20 08:13:08;;;;;;;25.00;15.18;;;;;;;6.60;100.00;154190.84;5024627;28;20040;-75
2022/12/20 08:15:35;;;;;;;26.02;15.55;;;;;;;6.48;100.00;154158.84;5005300;28;20044;-75
2022/12/20 08:18:01;;;;;;;22.23;15.32;;;;;;;6.50;100.00;154163.97;5024033;28;20037;-75
2022/12/20 08:20:27;;;;;;;23.65;15.73;;;;;;;6.56;100.00;154180.63;4988124;28;20114;-75
2022/12/20 08:22:53;;;;;;;28.35;15.38;;;;;;;6.55;100.00;154176.78;5009129;28;20485;-75
2022/12/20 08:25:20;;;;;;;23.80;15.73;;;;;;;6.47;100.00;154156.31;5028165;28;20608;-75
2022/12/20 08:27:46;;;;;;;26.08;15.20;;;;;;;6.48;100.00;154158.84;5008652;28;20057;-75
2022/12/20 08:30:13;;;;;;;21.52;15.48;;;;;;;6.53;100.00;154172.94;5017029;28;20041;-75
2022/12/20 08:32:38;;;;;;;24.33;15.10;;;;;;;6.59;100.00;154187.00;5008579;28;20068;-75
2022/12/20 08:35:05;;;;;;;22.70;14.60;;;;;;;6.56;100.00;154180.63;5001908;28;20834;-76
2022/12/20 08:37:31;;;;;;;22.65;14.90;;;;;;;6.53;100.00;154171.66;5012494;28;20126;-74
2022/12/20 08:39:57;;;;;;;22.58;14.90;;;;;;;6.48;100.00;154160.16;5016969;28;20398;-75
2022/12/20 08:42:22;;;;;;;21.90;14.23;;;;;;;6.52;100.00;154170.38;5012129;28;20044;-75
2022/12/20 08:44:48;;;;;;;23.75;15.05;;;;;;;6.59;100.00;154187.00;5014462;28;20520;-76
2022/12/20 08:47:14;;;;;;;21.25;14.50;;;;;;;6.60;100.00;154189.59;5026876;28;20036;-75
2022/12/20 08:49:40;;;;;;;24.35;14.80;;;;;;;6.66;100.00;154203.66;5019367;28;20082;-75
2022/12/20 08:52:05;;;;;;;22.00;13.98;;;;;;;6.65;100.00;154202.38;5015698;28;20117;-74
2022/12/20 08:54:31;;;;;;;20.83;14.57;;;;;;;6.68;100.00;154210.03;5056403;28;20040;-74
2022/12/20 08:56:56;;;;;;;21.40;13.60;;;;;;;6.80;100.00;154239.50;5014777;28;20045;-74
2022/12/20 08:59:22;;;;;;;22.33;13.20;;;;;;;6.86;100.00;154254.84;5059111;28;20037;-74
2022/12/20 09:01:49;;;;;;;19.75;13.38;;;;;;;6.90;100.00;154265.09;5015708;28;20033;-74
2022/12/20 09:04:15;;;;;;;22.38;13.48;;;;;;;6.80;100.00;154240.78;5039944;28;20094;-76
2022/12/20 09:06:40;;;;;;;19.05;12.98;;;;;;;6.86;100.00;154253.59;5016440;28;20053;-76
2022/12/20 09:09:06;;;;;;;17.98;12.32;;;;;;;6.89;100.00;154262.50;4997971;28;20394;-73
2022/12/20 09:11:32;;;;;;;19.83;12.80;;;;;;;6.82;100.00;154244.63;5021080;28;20055;-74
2022/12/20 09:13:58;;;;;;;19.77;12.73;;;;;;;6.85;100.00;154252.28;5001456;28;20041;-75
2022/12/20 09:16:28;;;;;;;18.58;12.43;;;;;;;6.96;100.00;154279.16;5018705;28;20040;-75
2022/12/20 09:18:57;;;;;;;20.48;12.82;;;;;;;6.96;100.00;154280.44;5006129;28;20095;-74
2022/12/20 09:21:22;;;;;;;17.92;12.27;;;;;;;7.01;100.00;154293.25;5012454;28;20067;-75
2022/12/20 09:23:53;;;;;;;17.17;11.80;;;;;;;7.02;100.00;154295.78;5007621;28;20132;-75
2022/12/20 09:26:20;;;;;;;20.83;12.38;;;;;;;7.19;100.00;154338.00;5027090;28;20041;-74
2022/12/20 09:28:47;;;;;;;18.98;12.32;;;;;;;7.23;100.00;154346.97;5036180;28;20029;-74
2022/12/20 09:31:16;;;;;;;19.63;12.43;;;;;;;7.22;100.00;154345.72;5024636;28;20037;-75
2022/12/20 09:33:42;;;;;;;16.23;12.07;;;;;;;7.31;100.00;154366.19;4992996;28;20423;-75
2022/12/20 09:36:13;;;;;;;15.32;11.35;;;;;;;7.19;100.00;154338.00;5019665;28;20052;-72
2022/12/20 09:38:39;;;;;;;18.30;11.25;;;;;;;7.23;100.00;154346.97;5019223;28;20036;-75
2022/12/20 09:41:06;;;;;;;17.00;11.55;;;;;;;7.20;100.00;154340.59;5025151;28;20476;-74
2022/12/20 09:43:32;;;;;;;15.80;11.13;;;;;;;7.30;100.00;154364.91;5003073;28;20056;-75
2022/12/20 09:46:02;;;;;;;17.85;11.85;;;;;;;7.30;100.00;154364.91;5028379;28;20037;-75
2022/12/20 09:48:35;;;;;;;15.63;11.07;;;;;;;7.34;100.00;154373.88;5020510;28;20101;-74
2022/12/20 09:51:24;;;;;;;16.15;10.88;;;;;;;7.43;100.00;154396.94;5030420;28;20028;-74
2022/12/20 09:54:14;;;;;;;18.98;11.13;;;;;;;7.49;100.00;154412.28;5014911;28;20140;-74
2022/12/20 09:56:58;;;;;;;15.45;10.98;;;;;;;7.48;100.00;154408.44;5019532;28;20444;-75
2022/12/20 09:59:24;;;;;;;17.17;10.52;;;;;;;7.53;100.00;154421.25;4996542;28;20052;-75
2022/12/20 10:01:50;;;;;;;17.67;10.70;;;;;;;7.53;100.00;154422.50;5028460;28;20033;-75
2022/12/20 10:04:31;;;;;;;18.38;10.43;;;;;;;7.56;100.00;154428.94;4996719;28;20033;-75
2022/12/20 10:07:15;;;;;;;16.35;10.30;;;;;;;7.52;100.00;154419.97;5018881;28;20036;-75
2022/12/20 10:10:00;;;;;;;16.90;10.40;;;;;;;7.59;100.00;154437.91;5005660;28;20090;-74
2022/12/20 10:13:06;;;;;;;20.80;10.70;;;;;;;7.59;100.00;154437.91;5024722;28;20048;-75
2022/12/20 10:15:42;;;;;;;15.65;10.18;;;;;;;7.63;100.00;154446.88;4994184;28;20044;-74
2022/12/20 10:18:41;;;;;;;15.25;10.52;;;;;;;7.62;100.00;154444.28;5007015;28;20051;-71
2022/12/20 10:21:25;;;;;;;15.68;10.20;;;;;;;7.67;100.00;154455.84;4996260;28;20048;-75
2022/12/20 10:24:04;;;;;;;14.88;9.90;;;;;;;7.55;100.00;154427.69;4989610;28;20039;-75
2022/12/20 10:26:32;;;;;;;16.00;10.13;;;;;;;7.75;100.00;154477.59;5018782;28;20079;-73
2022/12/20 10:28:57;;;;;;;13.73;9.73;;;;;;;7.82;100.00;154492.94;5005547;28;20045;-75
2022/12/20 10:31:24;;;;;;;16.65;9.30;;;;;;;7.85;100.00;154501.91;5027405;28;20777;-75
2022/12/20 10:33:50;;;;;;;11.98;9.02;;;;;;;7.77;100.00;154481.44;5020926;28;20063;-75
2022/12/20 10:36:29;;;;;;;13.18;9.43;;;;;;;7.76;100.00;154478.84;5019400;28;20028;-74
2022/12/20 10:38:57;;;;;;;11.10;8.60;;;;;;;7.68;100.00;154459.66;5014107;28;20487;-75
2022/12/20 10:41:26;;;;;;;13.45;9.02;;;;;;;7.66;100.00;154453.25;5001774;28;20036;-74
2022/12/20 10:43:57;;;;;;;12.50;9.55;;;;;;;7.60;100.00;154440.44;5005901;28;20045;-75
2022/12/20 10:46:35;;;;;;;16.17;9.00;;;;;;;7.67;100.00;154457.13;5018259;28;20409;-75
2022/12/20 10:49:22;;;;;;;14.50;9.27;;;;;;;7.76;100.00;154480.16;5024071;28;20060;-75
2022/12/20 10:51:53;;;;;;;11.68;8.52;;;;;;;7.86;100.00;154504.50;5006932;28;20071;-75
2022/12/20 10:54:33;;;;;;;12.80;9.13;;;;;;;7.96;100.00;154528.81;5014304;28;20040;-75
2022/12/20 10:57:02;;;;;;;13.93;8.43;;;;;;;7.99;100.00;154536.53;5027941;28;20040;-75
2022/12/20 10:59:35;;;;;;;11.55;8.70;;;;;;;7.97;100.00;154531.41;5030984;28;20029;-76
2022/12/20 11:02:22;;;;;;;13.35;8.65;;;;;;;7.94;100.00;154524.97;4997364;28;20032;-75
2022/12/20 11:05:11;;;;;;;11.52;7.75;;;;;;;7.89;100.00;154510.88;5038748;28;20474;-73
2022/12/20 11:08:17;;;;;;;14.52;8.20;;;;;;;7.94;100.00;154524.97;5010876;28;20047;-75
2022/12/20 11:10:43;;;;;;;10.88;7.68;;;;;;;8.06;100.00;154553.16;5022983;28;20049;-75
2022/12/20 11:13:22;;;;;;;11.77;7.90;;;;;;;8.16;100.00;154580.06;5001185;28;20673;-75
2022/12/20 11:15:55;;;;;;;12.55;7.63;;;;;;;8.13;100.00;154571.09;5026735;28;20052;-75
2022/12/20 11:18:36;;;;;;;11.80;7.70;;;;;;;8.14;100.00;154573.66;5003551;28;20045;-74
2022/12/20 11:21:05;;;;;;;11.60;7.68;;;;;;;8.13;100.00;154571.09;5002541;28;20118;-73
2022/12/20 11:23:40;;;;;;;14.00;7.68;;;;;;;8.21;100.00;154591.56;4996863;28;20033;-75
2022/12/20 11:26:34;;;;;;;11.43;7.78;;;;;;;8.26;100.00;154603.13;5009533;28;20049;-75
2022/12/20 11:29:33;;;;;;;12.77;7.45;;;;;;;8.24;100.00;154599.28;4999574;28;20128;-74
2022/12/20 11:31:58;;;;;;;10.27;7.10;;;;;;;8.23;100.00;154596.72;4996060;28;20071;-75
2022/12/20 11:34:36;;;;;;;11.57;7.10;;;;;;;8.27;100.00;154606.97;5022011;28;20820;-75
2022/12/20 11:37:19;;;;;;;12.75;7.22;;;;;;;8.31;100.00;154617.22;4985202;28;20571;-74
2022/12/20 11:40:22;;;;;;;10.93;7.20;;;;;;;8.33;100.00;154622.34;5023296;28;20032;-75